createdAt,value
2022-12-29T00:00:17.678Z,24.73
2022-12-29T00:03:19.456Z,25.52
2022-12-29T00:06:21.410Z,22.65
2022-12-29T00:09:23.238Z,24.13
2022-12-29T00:12:24.882Z,23.95
2022-12-29T00:15:39.961Z,22.70
2022-12-29T00:18:41.693Z,22.05
2022-12-29T00:22:02.185Z,24.20
2022-12-29T00:25:10.180Z,24.17
2022-12-29T00:28:30.653Z,22.83
2022-12-29T00:31:50.865Z,23.00
2022-12-29T00:35:10.674Z,21.17
2022-12-29T00:38:32.603Z,22.60
2022-12-29T00:41:52.990Z,17.60
2022-12-29T00:44:54.797Z,19.17
2022-12-29T00:47:56.416Z,20.60
2022-12-29T00:50:58.085Z,21.98
2022-12-29T00:53:59.796Z,20.13
2022-12-29T00:57:02.329Z,23.58
2022-12-29T01:00:04.473Z,20.90
2022-12-29T01:03:06.338Z,25.17
2022-12-29T01:06:10.532Z,25.50
2022-12-29T01:09:31.829Z,22.92
2022-12-29T01:12:46.081Z,24.02
2022-12-29T01:15:52.132Z,23.80
2022-12-29T01:18:53.896Z,22.80
2022-12-29T01:21:55.613Z,21.67
2022-12-29T01:24:57.444Z,21.05
2022-12-29T01:27:59.157Z,20.15
2022-12-29T01:31:01.859Z,16.88
2022-12-29T01:34:04.251Z,21.87
2022-12-29T01:37:05.944Z,22.15
2022-12-29T01:40:08.547Z,25.15
2022-12-29T01:43:14.039Z,22.63
2022-12-29T01:46:27.506Z,24.50
2022-12-29T01:49:30.291Z,28.33
2022-12-29T01:52:35.038Z,24.95
2022-12-29T01:55:51.099Z,26.08
2022-12-29T01:59:00.839Z,25.90
2022-12-29T02:02:02.788Z,24.83
2022-12-29T02:05:11.472Z,26.73
2022-12-29T02:08:14.380Z,27.95
2022-12-29T02:11:18.072Z,27.73
2022-12-29T02:14:20.055Z,32.03
2022-12-29T02:17:42.891Z,31.17
2022-12-29T02:20:44.522Z,23.90
2022-12-29T02:24:05.953Z,24.77
2022-12-29T02:27:19.533Z,21.92
2022-12-29T02:30:45.951Z,22.80
2022-12-29T02:34:22.668Z,19.83
2022-12-29T02:37:50.374Z,22.20
2022-12-29T02:41:09.700Z,20.40
2022-12-29T02:44:14.491Z,24.67
2022-12-29T02:47:49.533Z,22.85
2022-12-29T02:51:19.397Z,21.40
2022-12-29T02:54:40.280Z,21.87
2022-12-29T02:57:42.180Z,17.50
2022-12-29T03:01:15.268Z,18.30
2022-12-29T03:04:35.400Z,20.40
2022-12-29T03:08:00.214Z,17.63
2022-12-29T03:11:27.894Z,19.63
2022-12-29T03:15:05.594Z,17.02
2022-12-29T03:18:16.488Z,17.48
2022-12-29T03:21:49.109Z,16.27
2022-12-29T03:24:58.855Z,15.35
2022-12-29T03:28:08.723Z,17.17
2022-12-29T03:31:11.813Z,19.77
2022-12-29T03:34:15.665Z,16.63
2022-12-29T03:37:25.276Z,20.02
2022-12-29T03:40:29.855Z,17.05
2022-12-29T03:43:32.914Z,20.33
2022-12-29T03:46:34.965Z,15.15
2022-12-29T03:49:36.799Z,20.45
2022-12-29T03:52:38.434Z,17.25
2022-12-29T03:55:40.169Z,15.10
2022-12-29T03:58:41.946Z,16.27
2022-12-29T04:01:43.909Z,17.23
2022-12-29T04:04:45.657Z,18.02
2022-12-29T04:07:47.495Z,17.92
2022-12-29T04:10:50.699Z,20.40
2022-12-29T04:13:52.350Z,24.43
2022-12-29T04:16:54.089Z,21.40
2022-12-29T04:20:15.812Z,19.50
2022-12-29T04:23:18.595Z,17.63
2022-12-29T04:26:20.240Z,21.60
2022-12-29T04:29:22.099Z,15.70
2022-12-29T04:32:23.765Z,16.25
2022-12-29T04:35:25.480Z,14.10
2022-12-29T04:38:27.242Z,17.42
2022-12-29T04:41:28.905Z,19.23
2022-12-29T04:44:30.594Z,18.73
2022-12-29T04:47:32.268Z,15.75
2022-12-29T04:50:34.042Z,15.18
2022-12-29T04:53:36.312Z,25.13
2022-12-29T04:56:37.974Z,21.77
2022-12-29T04:59:39.660Z,18.50
2022-12-29T05:02:41.460Z,17.95
2022-12-29T05:05:43.293Z,18.35
2022-12-29T05:08:45.053Z,19.80
2022-12-29T05:11:46.817Z,18.52
2022-12-29T05:14:48.657Z,15.57
2022-12-29T05:17:50.354Z,14.98
2022-12-29T05:20:52.109Z,13.98
2022-12-29T05:23:53.792Z,17.85
2022-12-29T05:26:55.509Z,25.30
2022-12-29T05:29:57.318Z,19.07
2022-12-29T05:32:59.109Z,17.48
2022-12-29T05:36:08.988Z,18.02
2022-12-29T05:39:10.731Z,17.10
2022-12-29T05:42:12.430Z,27.67
2022-12-29T05:45:14.184Z,18.27
2022-12-29T05:48:16.427Z,19.00
2022-12-29T05:51:18.095Z,19.60
2022-12-29T05:54:20.184Z,22.10
2022-12-29T05:57:21.843Z,20.73
2022-12-29T06:00:23.538Z,17.83
2022-12-29T06:03:25.380Z,17.17
2022-12-29T06:06:27.303Z,21.02
2022-12-29T06:09:29.125Z,19.10
2022-12-29T06:12:30.782Z,16.65
2022-12-29T06:15:35.699Z,18.20
2022-12-29T06:18:37.615Z,18.83
2022-12-29T06:21:39.379Z,17.92
2022-12-29T06:24:41.107Z,20.83
2022-12-29T06:27:43.372Z,18.93
2022-12-29T06:30:46.346Z,17.40
2022-12-29T06:33:49.986Z,19.23
2022-12-29T06:36:52.194Z,21.42
2022-12-29T06:39:53.924Z,17.50
2022-12-29T06:42:55.642Z,18.27
2022-12-29T06:45:57.395Z,19.50
2022-12-29T06:48:59.148Z,20.13
2022-12-29T06:52:01.642Z,20.25
2022-12-29T06:55:03.563Z,17.33
2022-12-29T06:58:05.322Z,21.43
2022-12-29T07:01:07.150Z,17.57
2022-12-29T07:04:09.340Z,19.92
2022-12-29T07:07:11.029Z,19.83
2022-12-29T07:10:12.781Z,65.45
2022-12-29T07:13:14.764Z,116.40
2022-12-29T07:16:16.734Z,73.65
2022-12-29T07:19:19.550Z,32.40
2022-12-29T07:22:21.300Z,35.78
2022-12-29T07:25:23.358Z,31.50
2022-12-29T07:28:25.013Z,31.40
2022-12-29T07:31:26.706Z,40.35
2022-12-29T07:34:28.419Z,41.50
2022-12-29T07:37:30.149Z,56.90
2022-12-29T07:40:31.789Z,46.78
2022-12-29T07:43:33.518Z,45.23
2022-12-29T07:46:55.623Z,43.08
2022-12-29T07:49:57.419Z,37.80
2022-12-29T07:52:59.142Z,29.27
2022-12-29T07:56:00.885Z,20.85
2022-12-29T07:59:02.679Z,25.47
2022-12-29T08:02:04.522Z,23.65
2022-12-29T08:05:06.980Z,25.75
2022-12-29T08:08:08.643Z,23.77
2022-12-29T08:11:10.287Z,23.05
2022-12-29T08:14:12.199Z,22.53
2022-12-29T08:17:13.903Z,19.40
2022-12-29T08:20:15.737Z,19.83
2022-12-29T08:23:17.503Z,20.33
2022-12-29T08:26:19.219Z,22.15
2022-12-29T08:29:22.385Z,18.97
2022-12-29T08:32:24.171Z,22.77
2022-12-29T08:35:25.850Z,19.60
2022-12-29T08:38:29.425Z,16.90
2022-12-29T08:41:31.161Z,17.98
2022-12-29T08:44:32.889Z,20.03
2022-12-29T08:47:34.584Z,18.33
2022-12-29T08:50:36.359Z,20.25
2022-12-29T08:53:38.049Z,18.95
2022-12-29T08:56:39.758Z,22.90
2022-12-29T08:59:41.386Z,19.90
2022-12-29T09:02:43.454Z,18.92
2022-12-29T09:05:51.608Z,21.02
2022-12-29T09:08:55.200Z,22.90
2022-12-29T09:11:57.069Z,22.75
2022-12-29T09:14:58.800Z,23.40
2022-12-29T09:18:00.479Z,27.70
2022-12-29T09:21:04.106Z,25.13
2022-12-29T09:24:06.119Z,26.17
2022-12-29T09:27:07.836Z,22.23
2022-12-29T09:30:12.008Z,21.23
2022-12-29T09:33:14.392Z,21.08
2022-12-29T09:36:16.019Z,23.63
2022-12-29T09:39:17.790Z,19.48
2022-12-29T09:42:23.289Z,20.58
2022-12-29T09:45:41.542Z,22.53
2022-12-29T09:48:52.603Z,19.05
2022-12-29T09:52:00.394Z,19.48
2022-12-29T09:55:13.893Z,19.60
2022-12-29T09:58:37.039Z,17.20
2022-12-29T10:01:57.684Z,19.47
2022-12-29T10:04:59.721Z,18.92
2022-12-29T10:08:09.286Z,16.98
2022-12-29T10:11:17.094Z,19.55
2022-12-29T10:14:33.612Z,16.50
2022-12-29T10:17:41.622Z,18.33
2022-12-29T10:20:58.381Z,16.75
2022-12-29T10:24:02.963Z,15.82
2022-12-29T10:27:06.556Z,16.92
2022-12-29T10:30:13.749Z,18.08
2022-12-29T10:33:26.404Z,18.23
2022-12-29T10:36:44.346Z,19.60
2022-12-29T10:39:56.229Z,20.48
2022-12-29T10:42:59.109Z,18.98
2022-12-29T10:46:07.036Z,20.45
2022-12-29T10:49:21.598Z,20.70
2022-12-29T10:52:27.755Z,21.50
2022-12-29T10:55:37.746Z,18.35
2022-12-29T10:58:45.621Z,21.25
2022-12-29T11:02:11.329Z,21.92
2022-12-29T11:05:29.543Z,25.53
2022-12-29T11:08:36.334Z,18.65
2022-12-29T11:11:38.457Z,20.85
2022-12-29T11:14:41.706Z,21.38
2022-12-29T11:17:52.059Z,21.60
2022-12-29T11:20:56.995Z,19.17
2022-12-29T11:24:04.748Z,20.95
2022-12-29T11:27:16.508Z,20.13
2022-12-29T11:30:27.523Z,22.92
2022-12-29T11:33:30.478Z,22.05
2022-12-29T11:36:34.371Z,23.00
2022-12-29T11:40:13.448Z,20.23
2022-12-29T11:43:35.519Z,23.38
2022-12-29T11:46:39.419Z,18.88
2022-12-29T11:49:50.954Z,20.52
2022-12-29T11:52:59.992Z,23.30
2022-12-29T11:56:05.859Z,20.73
2022-12-29T11:59:32.714Z,19.27
2022-12-29T12:02:43.163Z,21.45
2022-12-29T12:05:58.798Z,23.35
2022-12-29T12:09:15.506Z,24.63
2022-12-29T12:12:35.628Z,20.75
2022-12-29T12:15:50.159Z,20.50
2022-12-29T12:19:02.091Z,25.35
2022-12-29T12:22:18.600Z,28.88
2022-12-29T12:25:44.114Z,30.20
2022-12-29T12:29:09.395Z,26.55
2022-12-29T12:32:38.951Z,22.25
2022-12-29T12:35:48.486Z,22.73
2022-12-29T12:39:06.388Z,22.45
2022-12-29T12:42:29.419Z,24.47
2022-12-29T12:45:56.296Z,28.00
2022-12-29T12:49:10.175Z,24.08
2022-12-29T12:52:24.754Z,25.08
2022-12-29T12:55:35.581Z,26.80
2022-12-29T12:59:10.276Z,23.57
2022-12-29T13:02:49.767Z,25.52
2022-12-29T13:06:17.600Z,24.60
2022-12-29T13:09:29.601Z,22.35
2022-12-29T13:12:58.123Z,24.48
2022-12-29T13:16:20.102Z,26.00
2022-12-29T13:19:44.854Z,24.38
2022-12-29T13:23:01.567Z,24.70
2022-12-29T13:26:29.123Z,25.25
2022-12-29T13:29:54.160Z,24.25
2022-12-29T13:33:07.645Z,23.37
2022-12-29T13:36:18.201Z,30.48
2022-12-29T13:39:30.090Z,25.23
2022-12-29T13:42:33.002Z,23.02
2022-12-29T13:45:36.527Z,22.05
2022-12-29T13:48:50.476Z,21.23
2022-12-29T13:51:59.906Z,23.90
2022-12-29T13:55:20.706Z,23.95
2022-12-29T13:58:38.592Z,25.00
2022-12-29T14:02:31.143Z,27.60
2022-12-29T14:05:33.359Z,33.83
2022-12-29T14:08:36.534Z,31.65
2022-12-29T14:11:42.075Z,39.90
2022-12-29T14:14:43.752Z,33.47
2022-12-29T14:18:00.896Z,34.53
2022-12-29T14:21:23.546Z,29.30
2022-12-29T14:24:37.324Z,29.08
2022-12-29T14:27:52.018Z,33.25
2022-12-29T14:30:59.629Z,31.85
2022-12-29T14:34:07.460Z,29.25
2022-12-29T14:37:27.911Z,29.80
2022-12-29T14:40:29.657Z,26.92
2022-12-29T14:43:31.360Z,29.15
2022-12-29T14:46:55.028Z,24.33
2022-12-29T14:50:03.605Z,31.67
2022-12-29T14:53:07.289Z,28.63
2022-12-29T14:56:12.552Z,29.58
2022-12-29T14:59:14.744Z,33.63
2022-12-29T15:02:21.521Z,36.50
2022-12-29T15:05:55.496Z,57.58
2022-12-29T15:09:06.076Z,58.53
2022-12-29T15:12:42.714Z,57.83
2022-12-29T15:15:44.467Z,78.63
2022-12-29T15:18:46.126Z,83.55
2022-12-29T15:21:48.469Z,66.70
2022-12-29T15:24:55.136Z,64.43
2022-12-29T15:28:06.103Z,60.38
2022-12-29T15:31:14.329Z,50.20
2022-12-29T15:34:16.272Z,48.22
2022-12-29T15:37:27.447Z,45.35
2022-12-29T15:40:33.697Z,42.50
2022-12-29T15:43:50.744Z,38.97
2022-12-29T15:46:53.047Z,45.65
2022-12-29T15:50:07.075Z,46.35
2022-12-29T15:53:17.568Z,42.85
2022-12-29T15:56:19.507Z,46.03
2022-12-29T15:59:32.967Z,45.30
2022-12-29T16:02:35.631Z,45.72
2022-12-29T16:05:41.099Z,36.63
2022-12-29T16:08:42.840Z,35.45
2022-12-29T16:11:48.844Z,36.80
2022-12-29T16:14:58.516Z,37.90
2022-12-29T16:18:00.579Z,36.63
2022-12-29T16:21:06.001Z,33.63
2022-12-29T16:24:14.504Z,36.83
2022-12-29T16:27:27.811Z,34.27
2022-12-29T16:30:35.556Z,35.58
2022-12-29T16:33:55.134Z,38.30
2022-12-29T16:37:23.712Z,42.97
2022-12-29T16:40:33.567Z,41.58
2022-12-29T16:43:42.734Z,40.53
2022-12-29T16:47:08.228Z,46.50
2022-12-29T16:50:28.315Z,34.35
2022-12-29T16:53:39.721Z,32.60
2022-12-29T16:56:45.674Z,84.00
2022-12-29T16:59:47.475Z,62.70
2022-12-29T17:02:57.174Z,57.78
2022-12-29T17:05:58.981Z,58.25
2022-12-29T17:09:00.792Z,46.25
2022-12-29T17:12:10.901Z,32.20
2022-12-29T17:15:21.495Z,35.60
2022-12-29T17:18:23.447Z,32.15
2022-12-29T17:21:25.227Z,37.70
2022-12-29T17:24:27.935Z,35.40
2022-12-29T17:27:34.745Z,31.63
2022-12-29T17:30:36.690Z,38.57
2022-12-29T17:33:42.349Z,45.35
2022-12-29T17:36:44.120Z,44.88
2022-12-29T17:39:45.813Z,48.78
2022-12-29T17:42:53.793Z,46.15
2022-12-29T17:45:57.497Z,38.77
2022-12-29T17:48:59.638Z,38.17
2022-12-29T17:52:01.377Z,40.95
2022-12-29T17:55:03.047Z,40.88
2022-12-29T17:58:19.394Z,38.75
2022-12-29T18:01:22.046Z,39.77
2022-12-29T18:04:23.763Z,40.85
2022-12-29T18:07:35.706Z,41.42
2022-12-29T18:10:38.875Z,47.95
2022-12-29T18:13:46.323Z,43.25
2022-12-29T18:16:48.963Z,45.20
2022-12-29T18:19:54.592Z,40.33
2022-12-29T18:22:56.836Z,40.38
2022-12-29T18:26:05.024Z,40.50
2022-12-29T18:29:06.773Z,79.70
2022-12-29T18:32:15.741Z,45.17
2022-12-29T18:35:25.927Z,42.95
2022-12-29T18:38:28.513Z,36.67
2022-12-29T18:41:30.361Z,39.53
2022-12-29T18:44:32.156Z,40.08
2022-12-29T18:47:33.881Z,41.53
2022-12-29T18:50:35.558Z,44.72
2022-12-29T18:53:37.984Z,45.80
2022-12-29T18:56:39.829Z,64.82
2022-12-29T18:59:41.516Z,61.13
2022-12-29T19:02:43.934Z,50.53
2022-12-29T19:05:47.129Z,54.05
2022-12-29T19:08:49.349Z,58.65
2022-12-29T19:11:51.187Z,55.65
2022-12-29T19:14:52.839Z,53.83
2022-12-29T19:18:32.938Z,46.13
2022-12-29T19:21:19.965Z,60.60
2022-12-29T19:24:21.817Z,84.80
2022-12-29T19:27:23.484Z,71.15
2022-12-29T19:30:25.141Z,60.15
2022-12-29T19:33:28.088Z,49.13
2022-12-29T19:36:30.076Z,43.88
2022-12-29T19:39:32.153Z,41.28
2022-12-29T19:42:34.401Z,44.70
2022-12-29T19:45:38.769Z,43.53
2022-12-29T19:48:40.913Z,45.80
2022-12-29T19:51:42.613Z,48.13
2022-12-29T19:54:44.566Z,46.83
2022-12-29T19:57:46.336Z,52.72
2022-12-29T20:00:49.312Z,45.65
2022-12-29T20:03:51.836Z,42.07
2022-12-29T20:06:53.567Z,60.95
2022-12-29T20:09:55.296Z,52.70
2022-12-29T20:12:57.023Z,49.90
2022-12-29T20:16:03.843Z,44.95
2022-12-29T20:19:05.814Z,45.80
2022-12-29T20:22:08.862Z,43.67
2022-12-29T20:25:43.574Z,45.38
2022-12-29T20:28:32.825Z,44.75
2022-12-29T20:31:38.676Z,45.67
2022-12-29T20:34:41.687Z,42.47
2022-12-29T20:37:43.355Z,46.15
2022-12-29T20:40:46.956Z,47.97
2022-12-29T20:43:49.769Z,44.97
2022-12-29T20:46:51.732Z,44.60
2022-12-29T20:49:53.720Z,49.43
2022-12-29T20:52:55.643Z,47.50
2022-12-29T20:56:04.208Z,48.30
2022-12-29T20:59:27.060Z,44.58
2022-12-29T21:02:28.268Z,42.42
2022-12-29T21:05:30.692Z,43.03
2022-12-29T21:08:32.415Z,41.58
2022-12-29T21:11:34.410Z,44.08
2022-12-29T21:14:38.579Z,42.22
2022-12-29T21:17:44.816Z,43.53
2022-12-29T21:20:57.199Z,41.87
2022-12-29T21:24:05.564Z,42.08
2022-12-29T21:27:07.636Z,44.58
2022-12-29T21:30:10.123Z,41.85
2022-12-29T21:33:11.808Z,41.13
2022-12-29T21:36:13.493Z,41.40
2022-12-29T21:39:16.443Z,45.28
2022-12-29T21:42:18.398Z,42.15
2022-12-29T21:45:25.981Z,39.95
2022-12-29T21:48:30.049Z,39.47
2022-12-29T21:51:50.034Z,39.60
2022-12-29T21:55:00.877Z,39.10
2022-12-29T21:58:20.884Z,41.25
2022-12-29T22:01:41.920Z,38.33
2022-12-29T22:05:02.006Z,39.33
2022-12-29T22:08:22.235Z,39.53
2022-12-29T22:11:42.480Z,38.08
2022-12-29T22:14:44.108Z,41.45
2022-12-29T22:17:49.071Z,40.25
2022-12-29T22:20:51.571Z,38.97
2022-12-29T22:23:53.274Z,42.20
2022-12-29T22:26:54.990Z,41.50
2022-12-29T22:29:56.827Z,40.85
2022-12-29T22:32:58.982Z,38.35
2022-12-29T22:36:00.644Z,40.90
2022-12-29T22:39:02.303Z,40.97
2022-12-29T22:42:04.062Z,38.40
2022-12-29T22:45:07.001Z,40.17
2022-12-29T22:48:08.937Z,46.05
2022-12-29T22:51:10.694Z,40.17
2022-12-29T22:54:12.369Z,41.93
2022-12-29T22:57:14.071Z,40.97
2022-12-29T23:00:16.350Z,42.88
2022-12-29T23:03:18.628Z,43.17
2022-12-29T23:06:20.479Z,46.97
2022-12-29T23:09:23.132Z,45.93
2022-12-29T23:12:25.648Z,47.33
2022-12-29T23:15:27.370Z,49.55
2022-12-29T23:18:29.537Z,46.50
2022-12-29T23:21:31.762Z,48.80
2022-12-29T23:24:33.465Z,46.37
2022-12-29T23:27:35.193Z,48.72
2022-12-29T23:30:36.963Z,44.78
2022-12-29T23:33:38.683Z,41.03
2022-12-29T23:36:40.886Z,51.33
2022-12-29T23:39:42.672Z,52.67
2022-12-29T23:42:44.424Z,48.95
2022-12-29T23:45:50.603Z,45.28
2022-12-29T23:48:52.890Z,46.67
2022-12-29T23:51:54.711Z,49.30
2022-12-29T23:54:56.373Z,51.57
2022-12-29T23:57:58.046Z,47.65
